Terminal Aerodrome Forecast
Issued by NWS Pendleton, OR

Home | Current Version | Previous Version | Text Only | Print | Product List | Glossary On
Versions: 1 2 3 4 5 6 7 8 9 10 11 12 13 14
077
FTUS46 KPDT 252320
TAFPDT
TAF
KPDT 252320Z 2600/2624 29015G25KT P6SM SCT060
     FM260600 25009KT P6SM SKC
     FM261700 25015G25KT P6SM SCT200=

USA.gov is the U.S. government's official web portal to all federal, state and local government web resources and services.